createdAt,value
2022-09-14T00:01:49.219Z,11.59
2022-09-14T00:06:52.714Z,11.54
2022-09-14T00:11:56.598Z,11.50
2022-09-14T00:17:00.023Z,11.46
2022-09-14T00:22:06.215Z,11.44
2022-09-14T00:27:10.939Z,11.44
2022-09-14T00:32:14.186Z,11.43
2022-09-14T00:37:17.465Z,11.40
2022-09-14T00:42:21.644Z,11.36
2022-09-14T00:47:26.603Z,11.31
2022-09-14T00:52:41.055Z,11.31
2022-09-14T00:57:47.941Z,11.33
2022-09-14T01:02:52.442Z,11.34
2022-09-14T01:08:09.131Z,11.32
2022-09-14T01:13:34.434Z,11.35
2022-09-14T01:18:45.245Z,11.37
2022-09-14T01:23:51.267Z,11.36
2022-09-14T01:28:57.294Z,11.35
2022-09-14T01:34:16.630Z,11.33
2022-09-14T01:39:23.647Z,11.32
2022-09-14T01:44:34.819Z,11.34
2022-09-14T01:49:44.498Z,11.34
2022-09-14T01:54:57.503Z,11.36
2022-09-14T02:00:12.383Z,11.33
2022-09-14T02:05:33.758Z,11.30
2022-09-14T02:10:38.017Z,11.31
2022-09-14T02:15:41.471Z,11.31
2022-09-14T02:20:54.224Z,11.31
2022-09-14T02:25:58.927Z,11.29
2022-09-14T02:31:21.341Z,11.25
2022-09-14T02:36:44.981Z,11.25
2022-09-14T02:41:57.212Z,11.32
2022-09-14T02:47:26.285Z,11.34
2022-09-14T02:52:37.575Z,11.36
2022-09-14T02:58:01.171Z,11.36
2022-09-14T03:03:09.845Z,11.30
2022-09-14T03:08:13.494Z,11.27
2022-09-14T03:13:16.823Z,11.25
2022-09-14T03:18:20.169Z,11.19
2022-09-14T03:23:23.713Z,11.15
2022-09-14T03:28:26.929Z,11.13
2022-09-14T03:33:30.626Z,11.16
2022-09-14T03:38:33.807Z,11.24
2022-09-14T03:43:37.479Z,11.32
2022-09-14T03:48:41.238Z,11.33
2022-09-14T03:53:45.560Z,11.35
2022-09-14T03:58:50.210Z,11.34
2022-09-14T04:03:53.520Z,11.40
2022-09-14T04:08:56.923Z,11.46
2022-09-14T04:14:05.073Z,11.51
2022-09-14T04:19:09.498Z,11.52
2022-09-14T04:24:15.502Z,11.49
2022-09-14T04:29:19.451Z,11.48
2022-09-14T04:34:22.977Z,11.59
2022-09-14T04:39:26.670Z,11.73
2022-09-14T04:44:33.168Z,11.89
2022-09-14T04:49:36.470Z,12.09
2022-09-14T04:54:39.983Z,12.34
2022-09-14T04:59:46.641Z,12.67
2022-09-14T05:04:51.174Z,12.94
2022-09-14T05:09:58.261Z,13.08
2022-09-14T05:15:01.792Z,13.14
2022-09-14T05:20:05.804Z,13.25
2022-09-14T05:25:09.838Z,13.43
2022-09-14T05:30:13.891Z,13.68
2022-09-14T05:35:40.663Z,13.95
2022-09-14T05:41:09.033Z,14.21
2022-09-14T05:46:31.692Z,14.78
2022-09-14T05:51:35.818Z,16.71
2022-09-14T05:56:41.854Z,18.29
2022-09-14T06:02:17.973Z,20.69
2022-09-14T06:07:21.993Z,22.54
2022-09-14T06:12:27.800Z,21.96
2022-09-14T06:17:31.673Z,23.49
2022-09-14T06:22:35.096Z,23.72
2022-09-14T06:27:38.621Z,25.62
2022-09-14T06:32:45.769Z,26.82
2022-09-14T06:37:53.478Z,27.73
2022-09-14T06:43:02.805Z,28.92
2022-09-14T06:48:09.239Z,30.06
2022-09-14T06:53:12.549Z,31.50
2022-09-14T06:58:15.767Z,30.70
2022-09-14T07:03:19.993Z,28.26
2022-09-14T07:08:23.634Z,27.18
2022-09-14T07:13:28.535Z,26.71
2022-09-14T07:18:35.773Z,24.99
2022-09-14T07:23:42.192Z,23.57
2022-09-14T07:28:48.986Z,23.93
2022-09-14T07:33:55.503Z,25.47
2022-09-14T07:39:02.663Z,24.92
2022-09-14T07:44:08.591Z,23.45
2022-09-14T07:49:13.179Z,23.22
2022-09-14T07:54:18.266Z,23.66
2022-09-14T07:59:35.504Z,24.37
2022-09-14T08:04:39.692Z,25.68
2022-09-14T08:09:43.026Z,24.16
2022-09-14T08:14:47.086Z,22.90
2022-09-14T08:19:52.587Z,22.56
2022-09-14T08:24:55.711Z,22.63
2022-09-14T08:29:58.877Z,22.87
2022-09-14T08:35:02.898Z,22.73
2022-09-14T08:40:06.671Z,22.67
2022-09-14T08:45:15.421Z,22.43
2022-09-14T08:50:22.293Z,21.98
2022-09-14T08:55:34.745Z,21.61
2022-09-14T09:00:42.191Z,21.19
2022-09-14T09:06:15.638Z,20.92
2022-09-14T09:11:23.470Z,20.73
2022-09-14T09:16:29.170Z,21.75
2022-09-14T09:21:39.147Z,22.86
2022-09-14T09:26:43.434Z,23.14
2022-09-14T09:31:56.334Z,22.61
2022-09-14T09:37:01.169Z,22.29
2022-09-14T09:42:13.575Z,22.61
2022-09-14T09:47:16.808Z,23.08
2022-09-14T09:52:19.954Z,23.19
2022-09-14T09:57:36.318Z,23.43
2022-09-14T10:02:41.440Z,23.39
2022-09-14T10:07:49.714Z,23.28
2022-09-14T10:12:57.521Z,23.15
2022-09-14T10:18:14.166Z,23.01
2022-09-14T10:23:20.273Z,22.91
2022-09-14T10:28:29.530Z,22.81
2022-09-14T10:33:33.699Z,22.73
2022-09-14T10:38:53.172Z,22.54
2022-09-14T10:44:24.431Z,22.49
2022-09-14T10:49:45.002Z,22.54
2022-09-14T10:54:58.911Z,22.38
2022-09-14T11:00:15.056Z,22.01
2022-09-14T11:05:27.542Z,21.31
2022-09-14T11:10:52.674Z,20.67
2022-09-14T11:16:17.860Z,20.23
2022-09-14T11:21:44.216Z,19.86
2022-09-14T11:26:56.384Z,19.52
2022-09-14T11:32:22.564Z,19.29
2022-09-14T11:37:50.867Z,19.24
2022-09-14T11:43:15.853Z,19.61
2022-09-14T11:48:51.736Z,19.98
2022-09-14T11:53:55.035Z,20.24
2022-09-14T11:59:01.473Z,20.56
2022-09-14T12:04:06.845Z,20.84
2022-09-14T12:09:24.803Z,20.75
2022-09-14T12:14:40.919Z,20.55
2022-09-14T12:19:49.786Z,20.41
2022-09-14T12:25:04.686Z,20.43
2022-09-14T12:30:40.417Z,20.36
2022-09-14T12:35:46.718Z,20.25
2022-09-14T12:40:50.889Z,20.16
2022-09-14T12:46:01.279Z,20.15
2022-09-14T12:51:05.862Z,20.38
2022-09-14T12:56:23.908Z,20.52
2022-09-14T13:01:32.085Z,20.67
2022-09-14T13:06:44.002Z,20.82
2022-09-14T13:11:53.489Z,21.02
2022-09-14T13:16:59.780Z,21.10
2022-09-14T13:22:03.442Z,20.87
2022-09-14T13:27:17.370Z,20.60
2022-09-14T13:32:24.226Z,20.62
2022-09-14T13:37:27.719Z,20.68
2022-09-14T13:42:30.995Z,20.51
2022-09-14T13:47:39.512Z,20.26
2022-09-14T13:53:01.405Z,20.15
2022-09-14T13:58:07.240Z,20.06
2022-09-14T14:03:24.812Z,20.05
2022-09-14T14:08:38.357Z,20.07
2022-09-14T14:13:41.822Z,20.05
2022-09-14T14:18:59.003Z,19.99
2022-09-14T14:24:27.277Z,19.95
2022-09-14T14:29:30.949Z,19.89
2022-09-14T14:34:34.304Z,19.74
2022-09-14T14:39:37.702Z,19.48
2022-09-14T14:44:42.918Z,19.16
2022-09-14T14:49:47.310Z,18.83
2022-09-14T14:54:50.555Z,18.54
2022-09-14T14:59:53.719Z,18.38
2022-09-14T15:04:57.227Z,18.32
2022-09-14T15:10:00.789Z,18.32
2022-09-14T15:15:04.947Z,18.36
2022-09-14T15:20:10.204Z,18.38
2022-09-14T15:25:16.009Z,18.33
2022-09-14T15:30:19.467Z,18.23
2022-09-14T15:35:26.028Z,18.10
2022-09-14T15:40:29.536Z,17.99
2022-09-14T15:45:32.924Z,17.88
2022-09-14T15:50:42.054Z,17.77
2022-09-14T15:55:45.921Z,17.69
2022-09-14T16:00:49.277Z,17.67
2022-09-14T16:05:53.071Z,17.67
2022-09-14T16:11:02.328Z,17.53
2022-09-14T16:16:08.002Z,17.44
2022-09-14T16:21:19.269Z,17.39
2022-09-14T16:26:29.064Z,17.22
2022-09-14T16:31:37.808Z,17.04
2022-09-14T16:36:42.562Z,16.82
2022-09-14T16:41:46.795Z,16.65
2022-09-14T16:46:52.419Z,16.47
2022-09-14T16:52:00.842Z,16.25
2022-09-14T16:57:04.257Z,16.03
2022-09-14T17:02:11.899Z,15.84
2022-09-14T17:07:15.846Z,15.66
2022-09-14T17:12:19.135Z,15.47
2022-09-14T17:17:26.356Z,15.26
2022-09-14T17:22:29.516Z,15.06
2022-09-14T17:27:32.832Z,14.85
2022-09-14T17:32:36.406Z,14.68
2022-09-14T17:37:39.636Z,14.60
2022-09-14T17:42:43.061Z,14.58
2022-09-14T17:47:46.841Z,14.57
2022-09-14T17:52:51.544Z,14.53
2022-09-14T17:57:57.011Z,14.52
2022-09-14T18:03:00.368Z,14.51
2022-09-14T18:08:04.132Z,14.50
2022-09-14T18:13:07.493Z,14.48
2022-09-14T18:18:11.137Z,14.48
2022-09-14T18:23:14.475Z,14.49
2022-09-14T18:28:17.989Z,14.49
2022-09-14T18:33:21.424Z,14.46
2022-09-14T18:38:30.553Z,14.46
2022-09-14T18:43:35.587Z,14.44
2022-09-14T18:48:41.096Z,14.42
2022-09-14T18:53:44.452Z,14.40
2022-09-14T18:58:48.259Z,14.39
2022-09-14T19:03:52.358Z,14.40
2022-09-14T19:08:55.856Z,14.38
2022-09-14T19:14:09.607Z,14.32
2022-09-14T19:19:15.623Z,14.22
2022-09-14T19:24:19.213Z,14.08
2022-09-14T19:29:24.262Z,13.90
2022-09-14T19:34:29.437Z,13.69
2022-09-14T19:39:32.791Z,13.52
2022-09-14T19:44:36.193Z,13.40
2022-09-14T19:49:39.426Z,13.36
